Time;durP1;ratioP1;P1;durP2;ratioP2;P2;SDS_P1;SDS_P2;PMS_P1;PMS_P2;Temp;Humidity;BMP_temperature;BMP_pressure;BME280_temperature;BME280_humidity;BME280_pressure;Samples;Min_cycle;Max_cycle;Signal;HPM_P1;HPM_P2
2023/02/06 00:01:51;;;;;;;4.45;1.98;;;;;;;0.60;75.21;101430.09;1840981;78;21104;-56
2023/02/06 00:04:20;;;;;;;10.65;4.85;;;;;;;0.58;75.23;101432.66;1841149;78;21036;-55
2023/02/06 00:06:48;;;;;;;9.43;3.72;;;;;;;0.57;75.25;101428.34;1856951;77;21016;-55
2023/02/06 00:09:17;;;;;;;12.05;3.98;;;;;;;0.58;75.23;101427.91;1854174;77;21127;-55
2023/02/06 00:11:46;;;;;;;4.40;2.00;;;;;;;0.59;75.19;101427.08;1854755;77;21623;-59
2023/02/06 00:14:14;;;;;;;6.80;2.20;;;;;;;0.56;75.18;101424.44;1842528;78;21026;-57
2023/02/06 00:16:43;;;;;;;11.40;3.45;;;;;;;0.55;75.20;101426.56;1850111;77;21205;-56
2023/02/06 00:19:11;;;;;;;10.23;4.05;;;;;;;0.52;75.26;101423.95;1914967;75;21104;-56
2023/02/06 00:21:40;;;;;;;10.10;3.02;;;;;;;0.51;75.26;101419.61;1915065;75;21053;-59
2023/02/06 00:24:09;;;;;;;5.17;2.67;;;;;;;0.52;75.26;101416.19;1873929;75;21129;-59
2023/02/06 00:26:37;;;;;;;9.90;3.05;;;;;;;0.52;75.24;101422.66;1873421;76;21529;-61
2023/02/06 00:29:06;;;;;;;9.35;4.40;;;;;;;0.52;75.23;101417.48;1875988;75;21027;-62
2023/02/06 00:31:35;;;;;;;9.45;3.60;;;;;;;0.51;75.24;101415.72;1873308;76;21109;-63
2023/02/06 00:34:03;;;;;;;6.67;2.80;;;;;;;0.51;75.21;101419.17;1873746;75;21176;-63
2023/02/06 00:36:33;;;;;;;5.58;2.60;;;;;;;0.50;75.21;101416.56;1873376;76;21051;-61
2023/02/06 00:39:01;;;;;;;6.40;3.05;;;;;;;0.47;75.22;101413.95;1892613;75;21012;-60
2023/02/06 00:41:30;;;;;;;7.22;2.42;;;;;;;0.50;75.19;101420.45;1905562;75;21038;-61
2023/02/06 00:43:59;;;;;;;10.45;4.65;;;;;;;0.46;75.18;101423.85;1905172;75;21593;-62
2023/02/06 00:46:27;;;;;;;11.90;3.98;;;;;;;0.42;75.21;101421.64;1905509;75;21086;-59
2023/02/06 00:48:56;;;;;;;7.10;2.87;;;;;;;0.43;75.21;101419.52;1920965;74;21247;-61
2023/02/06 00:51:25;;;;;;;9.38;3.05;;;;;;;0.44;75.17;101413.90;1927768;74;21128;-61
2023/02/06 00:53:53;;;;;;;4.78;2.37;;;;;;;0.43;75.18;101411.74;1927412;74;21160;-62
2023/02/06 00:56:22;;;;;;;9.95;4.33;;;;;;;0.42;75.20;101413.02;1927923;74;21128;-62
2023/02/06 00:58:51;;;;;;;14.90;4.50;;;;;;;0.38;75.22;101398.70;1927812;74;21764;-62
2023/02/06 01:01:19;;;;;;;9.90;3.95;;;;;;;0.38;75.20;101393.53;1927295;74;21031;-62
2023/02/06 01:03:48;;;;;;;10.95;3.92;;;;;;;0.37;75.18;101389.21;1927183;74;21146;-62
2023/02/06 01:06:18;;;;;;;5.62;3.10;;;;;;;0.37;75.18;101386.63;1911516;73;21049;-61
2023/02/06 01:08:47;;;;;;;6.62;3.12;;;;;;;0.37;75.15;101385.77;1897498;74;21099;-61
2023/02/06 01:11:19;;;;;;;5.70;3.15;;;;;;;0.36;75.16;101383.57;1894973;74;21481;-61
2023/02/06 01:13:48;;;;;;;7.50;4.50;;;;;;;0.35;75.16;101383.14;1894639;75;21086;-60
2023/02/06 01:16:20;;;;;;;8.98;3.85;;;;;;;0.32;75.17;101387.41;1911916;74;21654;-57
2023/02/06 01:18:49;;;;;;;8.28;2.67;;;;;;;0.32;75.13;101380.50;1927889;74;21175;-57
2023/02/06 01:21:20;;;;;;;11.85;3.47;;;;;;;0.30;75.12;101384.80;1927404;74;21654;-57
2023/02/06 01:23:51;;;;;;;7.85;2.75;;;;;;;0.27;75.13;101379.56;1928003;74;21482;-57
2023/02/06 01:26:23;;;;;;;9.65;3.80;;;;;;;0.27;75.13;101376.97;1926967;74;21100;-58
2023/02/06 01:28:51;;;;;;;8.30;3.12;;;;;;;0.25;75.10;101370.05;1927866;74;21121;-58
2023/02/06 01:31:24;;;;;;;3.87;2.15;;;;;;;0.25;75.04;101369.61;1891043;74;21551;-60
2023/02/06 01:33:54;;;;;;;11.90;4.10;;;;;;;0.24;75.07;101367.89;1888033;76;21050;-61
2023/02/06 01:36:23;;;;;;;5.72;2.92;;;;;;;0.21;75.10;101370.42;1887950;76;21240;-62
2023/02/06 01:38:52;;;;;;;9.95;4.30;;;;;;;0.23;75.07;101376.93;1896848;74;21035;-61
2023/02/06 01:41:23;;;;;;;13.03;4.60;;;;;;;0.20;75.11;101369.97;1894609;76;21207;-60
2023/02/06 01:44:16;;;;;;;8.53;4.85;;;;;;;0.21;75.09;101369.56;1894605;76;21038;-60
2023/02/06 01:46:47;;;;;;;6.05;2.77;;;;;;;0.20;75.10;101380.33;1894624;75;21595;-59
2023/02/06 01:49:23;;;;;;;10.85;4.22;;;;;;;0.19;75.12;101378.60;1896793;74;21128;-60
2023/02/06 01:51:57;;;;;;;13.93;5.42;;;;;;;0.22;75.07;101386.39;1894563;76;21054;-60
2023/02/06 01:54:26;;;;;;;10.55;4.35;;;;;;;0.23;75.10;101382.97;1894657;76;21485;-61
2023/02/06 01:56:58;;;;;;;10.18;2.65;;;;;;;0.23;75.12;101389.45;1894606;75;21038;-59
2023/02/06 01:59:27;;;;;;;10.93;3.92;;;;;;;0.23;75.07;101389.45;1897000;74;21122;-60
2023/02/06 02:01:57;;;;;;;7.83;3.05;;;;;;;0.24;75.08;101395.09;1894651;76;21671;-60
2023/02/06 02:04:28;;;;;;;9.73;4.15;;;;;;;0.22;75.08;101400.64;1903820;74;21012;-57
2023/02/06 02:07:15;;;;;;;10.18;4.50;;;;;;;0.23;75.15;101404.98;1927852;74;21028;-62
2023/02/06 02:09:43;;;;;;;11.08;5.67;;;;;;;0.23;75.11;101395.06;1884319;74;21121;-62
2023/02/06 02:12:13;;;;;;;12.25;4.45;;;;;;;0.21;75.11;101398.92;1894582;76;21055;-60
2023/02/06 02:14:44;;;;;;;10.55;4.35;;;;;;;0.21;75.10;101405.39;1920149;74;21592;-60
2023/02/06 02:17:33;;;;;;;13.10;5.70;;;;;;;0.19;75.13;101405.36;1927935;74;21565;-60
2023/02/06 02:20:21;;;;;;;14.33;5.83;;;;;;;0.22;75.12;101411.44;1925335;74;21481;-60
2023/02/06 02:22:59;;;;;;;14.30;4.90;;;;;;;0.22;75.09;101414.89;1922437;74;21124;-59
2023/02/06 02:25:45;;;;;;;9.65;4.45;;;;;;;0.21;75.11;101424.82;1894867;74;21073;-57
2023/02/06 02:28:33;;;;;;;10.85;4.10;;;;;;;0.19;75.11;101432.56;1896666;74;21070;-59
2023/02/06 02:31:35;;;;;;;14.78;5.33;;;;;;;0.19;75.15;101426.52;1893347;73;21090;-60
2023/02/06 02:34:31;;;;;;;4.75;3.08;;;;;;;0.19;75.16;101427.81;1894630;76;21615;-59
2023/02/06 02:37:06;;;;;;;14.23;5.10;;;;;;;0.19;75.14;101425.22;1897004;74;21207;-60
2023/02/06 02:39:56;;;;;;;19.57;7.12;;;;;;;0.21;75.07;101423.52;1894798;76;21558;-63
2023/02/06 02:42:42;;;;;;;16.85;5.00;;;;;;;0.21;75.06;101412.30;1894690;76;21130;-61
2023/02/06 02:45:22;;;;;;;7.47;3.08;;;;;;;0.18;75.04;101416.99;1893723;76;21231;-56
2023/02/06 02:47:54;;;;;;;8.20;3.92;;;;;;;0.16;75.03;101418.26;1896465;74;21520;-59
2023/02/06 02:50:23;;;;;;;11.05;3.10;;;;;;;0.16;75.03;101425.17;1872387;74;21115;-61
2023/02/06 02:52:53;;;;;;;13.60;5.62;;;;;;;0.13;75.02;101420.83;1863756;77;21591;-62
2023/02/06 02:55:23;;;;;;;11.10;3.60;;;;;;;0.13;75.06;101416.05;1863762;77;21589;-57
2023/02/06 02:57:56;;;;;;;9.78;5.30;;;;;;;0.12;75.08;101418.20;1865943;74;21764;-62
2023/02/06 03:00:26;;;;;;;17.55;5.95;;;;;;;0.13;75.10;101414.75;1863535;76;21036;-61
2023/02/06 03:02:57;;;;;;;13.45;4.65;;;;;;;0.12;75.12;101416.91;1863718;76;21044;-59
2023/02/06 03:05:27;;;;;;;13.60;5.25;;;;;;;0.12;75.13;101413.03;1892328;75;21020;-58
2023/02/06 03:08:17;;;;;;;16.32;5.85;;;;;;;0.12;75.09;101415.62;1905508;75;21115;-63
2023/02/06 03:11:05;;;;;;;8.20;3.65;;;;;;;0.09;75.09;101416.86;1902988;74;21067;-57
2023/02/06 03:13:39;;;;;;;10.28;4.80;;;;;;;0.07;75.14;101410.79;1905160;74;21036;-60
2023/02/06 03:16:35;;;;;;;18.50;6.90;;;;;;;0.05;75.12;101406.87;1905649;75;21060;-60
2023/02/06 03:19:06;;;;;;;21.20;6.85;;;;;;;0.04;75.16;101397.78;1917888;74;21059;-59
2023/02/06 03:21:37;;;;;;;12.07;4.40;;;;;;;0.03;75.13;101406.42;1905575;74;21039;-59
2023/02/06 03:24:14;;;;;;;12.82;4.70;;;;;;;0.02;75.17;101404.66;1903340;75;21117;-66
2023/02/06 03:26:44;;;;;;;9.03;3.65;;;;;;;0.03;75.11;101413.76;1903996;74;21119;-59
2023/02/06 03:29:16;;;;;;;12.15;4.65;;;;;;;0.02;75.14;101405.96;1905641;75;21165;-56
2023/02/06 03:31:56;;;;;;;12.07;4.03;;;;;;;0.00;75.17;101416.32;1905570;75;21039;-60
2023/02/06 03:34:31;;;;;;;13.30;4.87;;;;;;;0.01;75.20;101414.59;1917880;75;21490;-57
2023/02/06 03:37:00;;;;;;;8.43;3.50;;;;;;;-0.02;75.20;101411.52;1915478;75;21660;-58
2023/02/06 03:39:29;;;;;;;8.83;3.95;;;;;;;-0.01;75.18;101412.84;1917876;75;21027;-61
2023/02/06 03:42:01;;;;;;;17.27;6.78;;;;;;;-0.01;75.20;101406.36;1911849;75;21112;-61
2023/02/06 03:44:32;;;;;;;18.65;6.45;;;;;;;-0.01;75.17;101407.66;1885290;76;21043;-59
2023/02/06 03:47:03;;;;;;;14.03;4.47;;;;;;;-0.02;75.12;101405.04;1885215;76;21043;-60
2023/02/06 03:49:34;;;;;;;9.90;3.80;;;;;;;-0.03;75.10;101409.36;1888904;75;21506;-59
2023/02/06 03:52:05;;;;;;;14.60;6.35;;;;;;;-0.03;75.08;101408.06;1826467;78;21561;-57
2023/02/06 03:54:37;;;;;;;11.65;4.47;;;;;;;-0.04;75.04;101411.52;1825901;77;21137;-61
2023/02/06 03:57:08;;;;;;;17.25;5.42;;;;;;;-0.08;75.04;101419.20;1826496;77;21084;-59
2023/02/06 03:59:37;;;;;;;10.38;4.67;;;;;;;-0.10;75.06;101423.05;1843640;77;21034;-57
2023/02/06 04:02:06;;;;;;;20.23;6.90;;;;;;;-0.11;75.06;101423.91;1858919;77;21609;-56
2023/02/06 04:04:38;;;;;;;13.62;5.70;;;;;;;-0.11;75.08;101425.61;1857356;76;21100;-52
2023/02/06 04:07:22;;;;;;;12.15;4.72;;;;;;;-0.14;75.06;101425.15;1858778;76;21155;-60
2023/02/06 04:09:50;;;;;;;14.83;5.05;;;;;;;-0.15;75.09;101432.45;1859054;76;21120;-57
2023/02/06 04:12:20;;;;;;;5.67;3.25;;;;;;;-0.15;75.05;101432.45;1835734;77;21210;-57
2023/02/06 04:14:49;;;;;;;12.55;5.35;;;;;;;-0.15;74.99;101436.34;1840370;78;21477;-58
2023/02/06 04:17:19;;;;;;;11.57;5.12;;;;;;;-0.16;74.97;101435.91;1840451;78;21608;-58
2023/02/06 04:19:47;;;;;;;6.65;2.65;;;;;;;-0.15;74.99;101433.75;1840498;78;21100;-62
2023/02/06 04:22:17;;;;;;;9.00;2.87;;;;;;;-0.13;75.01;101432.48;1853448;77;21115;-58
2023/02/06 04:24:45;;;;;;;12.58;6.12;;;;;;;-0.17;74.94;101447.09;1871789;77;21483;-58
2023/02/06 04:27:15;;;;;;;13.10;5.60;;;;;;;-0.18;74.96;101447.95;1871618;77;21118;-57
2023/02/06 04:29:44;;;;;;;15.98;5.17;;;;;;;-0.19;74.95;101456.55;1871813;77;21028;-58
2023/02/06 04:32:12;;;;;;;12.55;4.15;;;;;;;-0.21;74.93;101469.89;1862916;77;21025;-57
2023/02/06 04:34:41;;;;;;;19.10;8.28;;;;;;;-0.22;74.92;101470.33;1858816;77;21170;-48
2023/02/06 04:37:15;;;;;;;16.35;5.25;;;;;;;-0.24;74.95;101464.66;1858832;77;21117;-56
2023/02/06 04:39:40;;;;;;;13.62;6.40;;;;;;;-0.26;74.90;101467.25;1857649;77;21069;-58
2023/02/06 04:42:09;;;;;;;10.93;4.05;;;;;;;-0.25;74.89;101468.11;1860941;76;21145;-59
2023/02/06 04:44:38;;;;;;;7.37;2.47;;;;;;;-0.27;74.88;101473.25;1873420;76;21091;-60
2023/02/06 04:47:07;;;;;;;18.45;6.60;;;;;;;-0.26;74.90;101472.82;1873315;75;21094;-58
2023/02/06 04:49:35;;;;;;;17.48;5.47;;;;;;;-0.29;74.92;101468.91;1873316;76;21188;-60
2023/02/06 04:52:04;;;;;;;19.92;8.08;;;;;;;-0.28;74.94;101479.69;1860988;76;21082;-56
2023/02/06 04:54:33;;;;;;;17.55;6.67;;;;;;;-0.28;74.95;101475.38;1857252;77;21581;-54
2023/02/06 04:57:02;;;;;;;15.50;5.53;;;;;;;-0.30;74.94;101473.63;1857926;77;21120;-59
2023/02/06 04:59:31;;;;;;;13.25;5.90;;;;;;;-0.34;74.91;101477.01;1857886;77;21470;-61
2023/02/06 05:01:59;;;;;;;20.57;7.20;;;;;;;-0.33;74.88;101473.56;1857925;77;21121;-62
2023/02/06 05:04:28;;;;;;;10.75;4.85;;;;;;;-0.33;74.86;101486.50;1859987;77;21158;-60
2023/02/06 05:06:57;;;;;;;10.00;4.60;;;;;;;-0.35;74.84;101483.02;1869031;77;21047;-60
2023/02/06 05:09:25;;;;;;;20.35;7.80;;;;;;;-0.36;74.84;101476.98;1869048;77;21236;-59
2023/02/06 05:11:54;;;;;;;8.63;3.60;;;;;;;-0.35;74.81;101468.78;1868968;77;21109;-59
2023/02/06 05:14:22;;;;;;;21.93;7.47;;;;;;;-0.35;74.80;101461.91;1862221;77;21042;-59
2023/02/06 05:16:51;;;;;;;8.75;3.75;;;;;;;-0.35;74.78;101463.61;1869156;77;21584;-59
2023/02/06 05:19:20;;;;;;;16.25;6.33;;;;;;;-0.38;74.76;101470.05;1869001;76;21039;-60
2023/02/06 05:21:48;;;;;;;18.67;6.58;;;;;;;-0.38;74.82;101472.63;1869025;77;21632;-59
2023/02/06 05:24:17;;;;;;;18.85;5.62;;;;;;;-0.41;74.80;101469.15;1866818;77;21079;-58
2023/02/06 05:26:45;;;;;;;10.35;5.45;;;;;;;-0.42;74.70;101464.80;1869091;77;21155;-57
2023/02/06 05:29:14;;;;;;;10.95;4.67;;;;;;;-0.42;74.68;101458.34;1869057;77;21047;-57
2023/02/06 05:31:42;;;;;;;14.50;5.12;;;;;;;-0.41;74.63;101460.48;1869052;77;21184;-59
2023/02/06 05:34:11;;;;;;;15.38;7.08;;;;;;;-0.41;74.64;101455.31;1868855;76;21148;-57
2023/02/06 05:36:40;;;;;;;16.15;6.85;;;;;;;-0.41;74.58;101453.63;1814015;77;21153;-62
2023/02/06 05:39:08;;;;;;;10.68;4.22;;;;;;;-0.44;74.57;101450.97;1869643;77;21047;-62
2023/02/06 05:41:37;;;;;;;12.65;4.55;;;;;;;-0.44;74.54;101449.67;1869711;77;21660;-62
2023/02/06 05:44:06;;;;;;;13.85;4.87;;;;;;;-0.43;74.53;101443.64;1869410;77;21091;-62
2023/02/06 05:46:34;;;;;;;9.23;3.58;;;;;;;-0.43;74.46;101447.52;1869407;77;21126;-61
2023/02/06 05:49:03;;;;;;;7.95;3.45;;;;;;;-0.42;74.43;101442.81;1869641;77;21117;-61
2023/02/06 05:51:32;;;;;;;7.37;3.40;;;;;;;-0.42;74.36;101440.22;1872129;75;21141;-60
2023/02/06 05:54:01;;;;;;;10.45;4.97;;;;;;;-0.42;74.34;101441.52;1878891;75;21177;-59
2023/02/06 05:56:29;;;;;;;10.90;4.72;;;;;;;-0.39;74.30;101440.69;1878843;76;21090;-60
2023/02/06 05:58:58;;;;;;;12.75;6.17;;;;;;;-0.38;74.26;101438.99;1878692;76;21043;-60
2023/02/06 06:01:28;;;;;;;15.58;5.67;;;;;;;-0.37;74.19;101442.01;1878805;76;21118;-60
2023/02/06 06:03:57;;;;;;;14.05;5.40;;;;;;;-0.35;74.19;101439.02;1878864;76;21459;-60
2023/02/06 06:06:25;;;;;;;15.20;6.85;;;;;;;-0.34;74.11;101445.95;1918135;75;21035;-60
2023/02/06 06:08:54;;;;;;;11.65;5.78;;;;;;;-0.33;74.05;101450.27;1918162;75;21000;-58
2023/02/06 06:11:23;;;;;;;15.90;6.15;;;;;;;-0.38;73.85;101451.50;1918065;75;21179;-57
2023/02/06 06:13:51;;;;;;;9.33;4.55;;;;;;;-0.41;73.80;101454.92;1907069;75;21176;-57
2023/02/06 06:16:20;;;;;;;16.60;5.00;;;;;;;-0.40;73.89;101456.64;1885189;75;21122;-60
2023/02/06 06:18:48;;;;;;;8.80;3.40;;;;;;;-0.40;73.78;101459.23;1890667;75;21047;-59
2023/02/06 06:21:17;;;;;;;10.30;4.75;;;;;;;-0.42;73.75;101459.63;1907555;75;21223;-60
2023/02/06 06:23:46;;;;;;;7.12;2.98;;;;;;;-0.40;73.68;101460.52;1912631;75;21109;-60
2023/02/06 06:26:14;;;;;;;4.55;2.75;;;;;;;-0.39;73.73;101456.21;1918207;75;21192;-59
2023/02/06 06:28:43;;;;;;;14.68;5.17;;;;;;;-0.38;73.66;101459.69;1918235;75;21109;-59
2023/02/06 06:31:12;;;;;;;9.95;4.45;;;;;;;-0.41;73.62;101463.97;1915239;74;21757;-59
2023/02/06 06:33:41;;;;;;;16.00;4.92;;;;;;;-0.41;73.60;101463.97;1918134;75;21161;-59
2023/02/06 06:36:11;;;;;;;4.72;2.87;;;;;;;-0.43;73.48;101456.58;1918214;75;21122;-57
2023/02/06 06:38:40;;;;;;;5.92;3.12;;;;;;;-0.43;73.50;101461.75;1918092;73;21106;-58
2023/02/06 06:41:09;;;;;;;4.90;2.08;;;;;;;-0.42;73.48;101458.77;1914814;75;21083;-57
2023/02/06 06:43:38;;;;;;;16.17;4.97;;;;;;;-0.41;73.49;101463.97;1918176;74;21557;-57
2023/02/06 06:46:07;;;;;;;6.03;3.87;;;;;;;-0.35;73.48;101464.90;1918048;75;21032;-57
2023/02/06 06:48:37;;;;;;;10.40;5.08;;;;;;;-0.34;73.47;101462.34;1918139;75;21114;-59
2023/02/06 06:51:06;;;;;;;10.03;4.70;;;;;;;-0.36;73.35;101458.00;1916786;75;21427;-60
2023/02/06 06:53:38;;;;;;;7.90;4.40;;;;;;;-0.40;73.32;101463.11;1895873;75;21545;-59
2023/02/06 06:56:06;;;;;;;11.12;5.58;;;;;;;-0.43;73.27;101457.88;1897036;74;21141;-60
2023/02/06 06:58:35;;;;;;;17.27;5.97;;;;;;;-0.43;73.31;101463.05;1926720;74;21035;-60
2023/02/06 07:01:04;;;;;;;11.50;5.72;;;;;;;-0.42;73.34;101464.80;1927721;73;21195;-60
2023/02/06 07:03:32;;;;;;;7.92;4.42;;;;;;;-0.40;73.34;101468.72;1904392;74;21062;-61
2023/02/06 07:06:01;;;;;;;9.93;4.08;;;;;;;-0.45;73.20;101467.33;1894788;74;21152;-61
2023/02/06 07:08:30;;;;;;;12.58;5.03;;;;;;;-0.46;73.26;101469.48;1898644;74;21039;-60
2023/02/06 07:10:58;;;;;;;6.22;2.75;;;;;;;-0.46;73.20;101465.60;1896737;74;21109;-60
2023/02/06 07:13:27;;;;;;;10.70;4.87;;;;;;;-0.47;73.22;101470.74;1894485;76;21078;-61
2023/02/06 07:15:56;;;;;;;11.65;5.33;;;;;;;-0.45;73.25;101468.63;1894422;76;21187;-60
2023/02/06 07:18:24;;;;;;;5.47;3.08;;;;;;;-0.47;73.20;101466.44;1906177;74;21096;-60
2023/02/06 07:20:53;;;;;;;10.20;3.12;;;;;;;-0.46;73.15;101472.06;1927781;74;21117;-61
2023/02/06 07:23:22;;;;;;;16.55;6.97;;;;;;;-0.48;73.13;101466.40;1927604;74;21058;-60
2023/02/06 07:25:51;;;;;;;8.88;3.80;;;;;;;-0.50;73.11;101474.16;1927914;74;21191;-61
2023/02/06 07:28:19;;;;;;;3.83;2.05;;;;;;;-0.51;73.06;101473.70;1925568;74;21453;-61
2023/02/06 07:30:48;;;;;;;7.72;3.65;;;;;;;-0.51;73.12;101476.28;1927758;74;21078;-61
2023/02/06 07:33:17;;;;;;;6.35;3.00;;;;;;;-0.48;73.08;101475.45;1927800;74;21128;-62
2023/02/06 07:35:45;;;;;;;11.93;3.62;;;;;;;-0.49;73.09;101475.89;1927933;74;21082;-60
2023/02/06 07:38:14;;;;;;;2.62;1.92;;;;;;;-0.47;73.02;101477.21;1927892;74;21039;-61
2023/02/06 07:40:42;;;;;;;6.20;3.55;;;;;;;-0.51;72.95;101459.90;1925449;74;21179;-60
2023/02/06 07:43:11;;;;;;;10.25;4.30;;;;;;;-0.53;72.93;101455.98;1927481;74;21046;-61
2023/02/06 07:45:40;;;;;;;8.43;5.28;;;;;;;-0.52;72.94;101455.13;1927778;74;21751;-60
2023/02/06 07:48:09;;;;;;;9.10;4.37;;;;;;;-0.52;72.96;101459.00;1927757;74;21050;-61
2023/02/06 07:50:38;;;;;;;6.05;3.50;;;;;;;-0.52;73.00;101442.19;1925551;74;21171;-60
2023/02/06 07:53:06;;;;;;;8.63;2.95;;;;;;;-0.52;72.96;101438.30;1921344;74;21506;-58
2023/02/06 07:55:38;;;;;;;6.65;3.47;;;;;;;-0.47;73.01;101442.28;1905461;75;21200;-58
2023/02/06 07:58:07;;;;;;;9.85;4.47;;;;;;;-0.46;72.96;101430.67;1905432;74;21114;-58
2023/02/06 08:00:35;;;;;;;17.70;6.17;;;;;;;-0.45;72.92;101437.57;1902997;75;21188;-58
2023/02/06 08:03:04;;;;;;;10.78;4.45;;;;;;;-0.45;72.92;101434.13;1898513;75;21012;-58
2023/02/06 08:35:01;;;;;;;14.28;5.92;;;;;;;-0.18;73.85;101466.08;1959072;72;22129;-48
2023/02/06 08:37:31;;;;;;;5.97;3.30;;;;;;;-0.18;73.30;101462.20;1918418;75;21567;-43
2023/02/06 08:40:00;;;;;;;9.13;5.30;;;;;;;-0.20;72.94;101466.48;1915214;73;21098;-44
2023/02/06 08:42:29;;;;;;;9.75;4.72;;;;;;;-0.20;72.85;101466.05;1915839;75;21035;-48
2023/02/06 08:44:57;;;;;;;14.28;6.22;;;;;;;-0.23;72.70;101461.23;1918287;75;21032;-45
2023/02/06 08:47:26;;;;;;;12.45;4.83;;;;;;;-0.26;72.61;101464.66;1918215;75;21414;-47
2023/02/06 08:49:54;;;;;;;6.67;3.50;;;;;;;-0.30;72.55;101450.33;1918216;75;20988;-47
2023/02/06 08:52:23;;;;;;;8.68;4.05;;;;;;;-0.33;72.60;101448.58;1896505;75;21168;-47
2023/02/06 08:54:52;;;;;;;14.80;5.67;;;;;;;-0.31;72.64;101452.05;1885696;75;21028;-44
2023/02/06 08:57:20;;;;;;;7.17;3.42;;;;;;;-0.32;72.61;101449.44;1885586;76;21094;-46
2023/02/06 08:59:49;;;;;;;6.78;4.72;;;;;;;-0.32;72.49;101445.55;1885716;76;21097;-45
2023/02/06 09:02:17;;;;;;;15.93;5.47;;;;;;;-0.36;72.50;101441.18;1889989;75;21015;-46
2023/02/06 09:04:46;;;;;;;8.30;4.03;;;;;;;-0.35;72.56;101446.39;1885501;76;21035;-47
2023/02/06 09:07:14;;;;;;;13.35;5.10;;;;;;;-0.37;72.58;101442.88;1885567;76;21058;-50
2023/02/06 09:09:43;;;;;;;9.38;5.42;;;;;;;-0.35;72.66;101441.61;1885608;76;21188;-50
2023/02/06 09:12:12;;;;;;;15.23;5.62;;;;;;;-0.36;72.71;101429.53;1892222;74;21271;-50
2023/02/06 09:14:41;;;;;;;16.07;5.33;;;;;;;-0.36;72.75;101425.66;1885569;76;21047;-50
2023/02/06 09:17:09;;;;;;;6.72;4.62;;;;;;;-0.36;72.75;101420.05;1885658;76;21039;-50
2023/02/06 09:19:38;;;;;;;11.68;7.40;;;;;;;-0.37;72.74;101422.60;1885464;76;21149;-49
2023/02/06 09:22:07;;;;;;;14.90;5.80;;;;;;;-0.36;72.80;101422.63;1887754;75;21166;-46
2023/02/06 09:24:35;;;;;;;20.70;6.85;;;;;;;-0.35;72.79;101417.03;1885576;76;21012;-45
2023/02/06 09:27:04;;;;;;;12.45;6.33;;;;;;;-0.32;72.78;101417.09;1885962;75;21055;-47
2023/02/06 09:29:33;;;;;;;9.93;6.15;;;;;;;-0.30;72.77;101414.96;1885630;76;21034;-45
2023/02/06 09:32:01;;;;;;;5.65;3.25;;;;;;;-0.31;72.72;101413.67;1885592;76;21043;-45
2023/02/06 09:34:30;;;;;;;13.25;5.97;;;;;;;-0.34;72.67;101409.72;1881705;75;21166;-45
2023/02/06 09:37:00;;;;;;;16.80;6.47;;;;;;;-0.35;72.72;101402.80;1873353;76;21499;-48
2023/02/06 09:39:29;;;;;;;5.85;3.95;;;;;;;-0.35;72.71;101403.69;1873504;76;21023;-49
2023/02/06 09:42:12;;;;;;;5.92;3.42;;;;;;;-0.37;72.68;101394.14;1873353;76;21501;-46
2023/02/06 09:44:44;;;;;;;16.62;6.50;;;;;;;-0.35;72.70;101392.44;1898291;75;21110;-48
2023/02/06 09:47:24;;;;;;;8.13;4.22;;;;;;;-0.37;72.65;101395.44;1905165;74;21037;-47
2023/02/06 09:50:00;;;;;;;19.98;7.72;;;;;;;-0.36;72.64;101392.02;1905191;75;21075;-47
2023/02/06 09:52:41;;;;;;;11.43;5.12;;;;;;;-0.35;72.60;101385.58;1905196;75;21031;-50
2023/02/06 09:55:27;;;;;;;7.67;3.37;;;;;;;-0.35;72.49;101369.16;1880198;75;21126;-45
2023/02/06 09:58:15;;;;;;;9.85;5.08;;;;;;;-0.39;72.47;101376.00;1872486;76;21497;-48
2023/02/06 10:00:46;;;;;;;11.70;5.70;;;;;;;-0.35;72.45;101374.33;1872667;76;21130;-45
2023/02/06 10:03:27;;;;;;;4.53;2.85;;;;;;;-0.38;72.32;101366.54;1874741;75;21008;-48
2023/02/06 10:06:21;;;;;;;4.55;2.65;;;;;;;-0.38;72.33;101365.25;1872616;76;21106;-47
2023/02/06 10:09:01;;;;;;;10.65;5.80;;;;;;;-0.38;72.18;101367.83;1872991;77;21093;-43
2023/02/06 10:11:33;;;;;;;5.40;3.40;;;;;;;-0.36;72.26;101363.55;1858060;76;21472;-48
2023/02/06 10:14:10;;;;;;;6.85;3.75;;;;;;;-0.35;72.17;101361.39;1882748;75;21028;-47
2023/02/06 10:16:45;;;;;;;8.95;3.95;;;;;;;-0.33;72.25;101358.40;1905237;74;21090;-49
2023/02/06 10:19:25;;;;;;;14.13;5.92;;;;;;;-0.33;72.29;101360.98;1901257;74;21106;-48
2023/02/06 10:21:59;;;;;;;9.88;5.03;;;;;;;-0.32;72.18;101353.69;1891066;74;21137;-47
2023/02/06 10:25:00;;;;;;;9.53;5.50;;;;;;;-0.37;72.14;101360.50;1902872;74;21114;-47
2023/02/06 10:27:34;;;;;;;15.85;7.03;;;;;;;-0.40;72.22;101357.45;1904903;75;21060;-47
2023/02/06 10:30:03;;;;;;;9.38;4.35;;;;;;;-0.38;72.31;101352.31;1905203;75;21032;-48
2023/02/06 10:32:53;;;;;;;9.98;4.33;;;;;;;-0.36;72.35;101351.91;1905254;75;21177;-47
2023/02/06 10:35:30;;;;;;;5.28;3.42;;;;;;;-0.35;72.32;101349.75;1914417;74;21055;-46
2023/02/06 10:38:22;;;;;;;8.35;3.90;;;;;;;-0.36;72.29;101346.30;1896018;74;21101;-48
2023/02/06 10:41:05;;;;;;;9.10;3.70;;;;;;;-0.36;72.32;101348.89;1891317;76;21148;-46
2023/02/06 10:43:46;;;;;;;9.88;3.95;;;;;;;-0.36;72.24;101349.31;1891760;75;21935;-45
2023/02/06 10:46:27;;;;;;;10.10;4.03;;;;;;;-0.38;72.30;101337.64;1893674;74;21047;-46
2023/02/06 10:49:11;;;;;;;12.78;6.47;;;;;;;-0.37;72.26;101347.12;1891207;75;21044;-48
2023/02/06 10:51:42;;;;;;;13.45;6.05;;;;;;;-0.38;72.18;101347.13;1885402;75;21047;-47
2023/02/06 10:54:20;;;;;;;5.22;3.05;;;;;;;-0.43;72.19;101344.02;1891411;75;21043;-44
2023/02/06 10:56:51;;;;;;;8.73;4.78;;;;;;;-0.44;72.27;101346.19;1893388;74;21055;-44
2023/02/06 10:59:34;;;;;;;13.25;5.90;;;;;;;-0.46;72.18;101331.06;1891493;75;21011;-46
2023/02/06 11:02:08;;;;;;;17.50;6.78;;;;;;;-0.46;72.17;101333.65;1891677;76;21105;-47
2023/02/06 11:04:43;;;;;;;6.60;3.52;;;;;;;-0.50;72.15;101334.45;1891412;76;21043;-44
2023/02/06 11:07:26;;;;;;;10.55;4.60;;;;;;;-0.53;72.15;101333.53;1908330;74;21035;-48
2023/02/06 11:09:56;;;;;;;11.38;4.97;;;;;;;-0.55;72.09;101325.75;1888337;74;21046;-47
2023/02/06 11:12:30;;;;;;;14.68;5.05;;;;;;;-0.58;72.18;101324.39;1924548;74;21486;-47
2023/02/06 11:15:01;;;;;;;12.50;5.30;;;;;;;-0.56;72.25;101318.81;1923959;74;21097;-46
2023/02/06 11:17:31;;;;;;;12.78;5.85;;;;;;;-0.53;72.25;101317.58;1922118;74;21498;-47
2023/02/06 11:20:19;;;;;;;10.45;4.58;;;;;;;-0.52;72.23;101315.42;1924555;74;21560;-49
2023/02/06 11:22:49;;;;;;;7.67;4.33;;;;;;;-0.51;72.26;101319.77;1924421;74;21008;-48
2023/02/06 11:25:26;;;;;;;3.58;2.33;;;;;;;-0.49;72.22;101320.66;1923642;74;21410;-46
2023/02/06 11:27:56;;;;;;;6.62;3.40;;;;;;;-0.47;72.13;101321.98;1924525;74;21176;-46
2023/02/06 11:30:34;;;;;;;9.50;5.15;;;;;;;-0.46;72.20;101321.11;1924662;74;21094;-49
2023/02/06 11:33:20;;;;;;;6.53;3.15;;;;;;;-0.42;72.14;101333.27;1924530;74;21048;-45
2023/02/06 11:35:55;;;;;;;7.15;3.22;;;;;;;-0.42;72.10;101331.98;1920313;74;21173;-48
2023/02/06 11:38:26;;;;;;;13.85;5.80;;;;;;;-0.44;72.05;101326.78;1890905;75;21487;-46
2023/02/06 11:41:07;;;;;;;8.73;4.75;;;;;;;-0.46;72.07;101327.58;1891383;76;21144;-48
2023/02/06 11:43:45;;;;;;;11.93;4.60;;;;;;;-0.51;72.10;101330.11;1891881;74;21509;-50
2023/02/06 11:46:22;;;;;;;6.80;2.98;;;;;;;-0.54;72.05;101330.05;1891969;74;21039;-46
2023/02/06 11:49:09;;;;;;;7.78;4.12;;;;;;;-0.57;72.04;101328.73;1891143;75;21547;-48
2023/02/06 11:51:53;;;;;;;6.12;3.42;;;;;;;-0.54;72.10;101329.19;1889558;75;21107;-46
2023/02/06 11:54:27;;;;;;;4.58;2.98;;;;;;;-0.53;72.15;101327.93;1891521;76;21541;-45
2023/02/06 11:56:59;;;;;;;9.50;3.52;;;;;;;-0.51;72.19;101324.08;1897647;74;21146;-47
2023/02/06 11:59:28;;;;;;;5.75;3.40;;;;;;;-0.50;72.17;101333.56;1908616;74;21036;-45
2023/02/06 12:02:00;;;;;;;5.45;1.57;;;;;;;-0.50;72.22;101339.63;1924410;74;21422;-47
2023/02/06 12:04:33;;;;;;;4.62;2.40;;;;;;;-0.48;72.26;101341.81;1924466;74;21016;-45
2023/02/06 12:07:24;;;;;;;4.87;2.98;;;;;;;-0.47;72.29;101345.27;1922866;74;21125;-48
2023/02/06 12:09:52;;;;;;;8.75;3.50;;;;;;;-0.49;72.25;101342.64;1891512;76;21446;-48
2023/02/06 12:12:27;;;;;;;7.08;3.45;;;;;;;-0.49;72.21;101349.11;1891311;76;21035;-48
2023/02/06 12:15:04;;;;;;;7.72;3.25;;;;;;;-0.49;72.17;101354.29;1891364;76;21063;-47
2023/02/06 12:17:36;;;;;;;6.25;2.92;;;;;;;-0.50;72.19;101360.73;1892289;74;21109;-49